Terminal Aerodrome Forecast
Issued by NWS

Home | Current Version | Previous Version | Text Only | Print | Product List | Glossary On
Versions: 1 2 3 4 5 6 7 8 9 10 11 12 13 14 15 16 17 18 19 20 21 22 23 24
953
FTUS43 KDLH 281140
TAFHIB
TAF
KHIB 281140Z 2812/0112 02005KT P6SM -SN SCT008 OVC014
      TEMPO 2813/2817 6SM -SN BR BKN008 OVC015
     FM281700 02008KT P6SM VCSH OVC015
     FM281900 02010KT P6SM BKN015 OVC025
     FM010100 02009KT P6SM BKN025
     FM010500 01008KT P6SM SCT025 BKN120=

USA.gov is the U.S. government's official web portal to all federal, state and local government web resources and services.